Minneapolis, Minnesota
Current Conditions -  °F | °C
As of 5:53 AM on Tuesday 27 Jan 2015 (Local Time) from KMSP Reporting Station
Overcast Overcast  
Wind Chill: 28°   Ceiling: 2200
Heat Index: 33°   Visibility: 10mi
Dew Point: 25°   Wind: 6mph
Humidity: 72%   Direction: 50°NE
Pressure: 30.09"   Gusts: NA
Location:  44.98°N, 93.26°W
Report Text: KMSP 271153Z 05005KT 10SM OVC022 01/M04 A3009 RMK AO2 SLP199 T00061039 10022 20006 53012
Loading
Personal Weather Stations






























Interactive Weather Map New forecast layout! Learn more

10-Day Weather Forecast

Advertisements
Track Severe Weather on mobile